TimeMST,TemperatureF,Dew PointF,Humidity,Sea Level PressureIn,VisibilityMPH,Wind Direction,Wind SpeedMPH,Gust SpeedMPH,PrecipitationIn,Events,Conditions,WindDirDegrees,DateUTC
12:53 AM,63.0,48.9,60,29.78,10.0,ENE,3.5,-,N/A,,Partly Cloudy,60,2012-11-09 07:53:00
1:53 AM,62.1,48.9,62,29.76,10.0,ESE,3.5,-,N/A,,Partly Cloudy,110,2012-11-09 08:53:00
2:53 AM,66.9,46.0,47,29.75,10.0,SE,11.5,-,N/A,,Scattered Clouds,130,2012-11-09 09:53:00
3:53 AM,68.0,44.1,42,29.75,10.0,SE,11.5,-,N/A,,Overcast,130,2012-11-09 10:53:00
4:53 AM,66.0,46.0,48,29.75,10.0,SE,9.2,-,N/A,,Partly Cloudy,130,2012-11-09 11:53:00
5:53 AM,66.0,48.0,52,29.75,10.0,SE,10.4,-,N/A,,Clear,130,2012-11-09 12:53:00
6:53 AM,64.9,50.0,58,29.76,10.0,SE,9.2,-,N/A,,Partly Cloudy,140,2012-11-09 13:53:00
7:53 AM,66.0,52.0,60,29.78,10.0,SE,8.1,-,N/A,,Mostly Cloudy,140,2012-11-09 14:53:00
8:53 AM,70.0,53.1,55,29.78,10.0,South,11.5,-,N/A,,Overcast,180,2012-11-09 15:53:00
9:53 AM,72.0,54.0,53,29.78,10.0,SSW,15.0,-,N/A,,Overcast,200,2012-11-09 16:53:00
10:53 AM,71.1,48.0,44,29.78,10.0,SW,10.4,-,N/A,,Clear,230,2012-11-09 17:53:00
11:53 AM,73.0,48.0,41,29.77,10.0,SSW,12.7,18.4,N/A,,Partly Cloudy,210,2012-11-09 18:53:00
12:53 PM,72.0,46.9,41,29.73,10.0,SW,11.5,-,N/A,,Scattered Clouds,230,2012-11-09 19:53:00
1:53 PM,73.0,45.0,37,29.70,10.0,SW,11.5,21.9,N/A,,Clear,220,2012-11-09 20:53:00
2:53 PM,72.0,45.0,38,29.68,10.0,WSW,6.9,18.4,N/A,,Partly Cloudy,240,2012-11-09 21:53:00
3:53 PM,73.0,43.0,34,29.67,10.0,WSW,15.0,20.7,N/A,,Overcast,240,2012-11-09 22:53:00
4:53 PM,71.1,44.1,38,29.67,10.0,WSW,8.1,18.4,N/A,,Overcast,250,2012-11-09 23:53:00
5:53 PM,70.0,44.1,39,29.66,10.0,SW,10.4,-,N/A,,Overcast,230,2012-11-10 00:53:00
6:50 PM,69.8,44.6,40,29.73,10.0,WSW,13.8,-,N/A,,Overcast,240,2012-11-10 01:50:00
6:53 PM,69.1,45.0,42,29.68,10.0,SW,10.4,-,N/A,,Overcast,230,2012-11-10 01:53:00
7:53 PM,66.9,44.1,44,29.68,10.0,SW,13.8,-,N/A,,Overcast,220,2012-11-10 02:53:00
8:53 PM,64.0,46.9,54,29.70,7.0,SSW,15.0,25.3,0.00,Rain,Rain,210,2012-11-10 03:53:00
9:53 PM,62.1,42.1,48,29.72,10.0,West,16.1,-,0.02,,Overcast,280,2012-11-10 04:53:00
10:53 PM,57.0,46.0,67,29.76,8.0,West,11.5,-,0.01,Rain,Light Rain,270,2012-11-10 05:53:00
11:53 PM,55.9,48.0,75,29.75,10.0,SSW,3.5,-,0.03,,Overcast,210,2012-11-10 06:53:00